Time;durP1;ratioP1;P1;durP2;ratioP2;P2;SDS_P1;SDS_P2;PMS_P1;PMS_P2;Temp;Humidity;BMP_temperature;BMP_pressure;BME280_temperature;BME280_humidity;BME280_pressure;Samples;Min_cycle;Max_cycle;Signal;HPM_P1;HPM_P2
2023/06/26 00:00:54;;;;;;;8.20;7.40;;;;;;;23.92;59.56;101047.31;5329415;28;20077;-68
2023/06/26 00:03:25;;;;;;;7.63;6.83;;;;;;;23.90;59.31;101053.69;5328183;28;20115;-68
2023/06/26 00:06:00;;;;;;;8.63;6.80;;;;;;;24.05;58.81;101047.34;5329125;28;20080;-67
2023/06/26 00:08:31;;;;;;;12.13;7.10;;;;;;;24.00;58.83;101058.31;5329103;28;20265;-65
2023/06/26 00:11:03;;;;;;;7.93;7.13;;;;;;;23.91;59.74;101044.75;5329269;28;20089;-67
2023/06/26 00:13:34;;;;;;;9.00;6.83;;;;;;;23.80;58.81;101048.09;5329190;28;20308;-68
2023/06/26 00:16:05;;;;;;;7.63;6.53;;;;;;;23.76;59.54;101051.88;5329328;28;20148;-67
2023/06/26 00:18:37;;;;;;;8.03;6.90;;;;;;;23.74;59.33;101044.00;5327185;28;20027;-68
2023/06/26 00:21:08;;;;;;;9.23;7.07;;;;;;;23.64;59.56;101035.75;5329053;28;20778;-68
2023/06/26 00:23:39;;;;;;;9.88;6.53;;;;;;;23.55;59.75;101035.47;5329270;28;20026;-66
2023/06/26 00:26:12;;;;;;;7.50;6.80;;;;;;;23.46;60.03;101040.44;5327623;28;20074;-68
2023/06/26 00:28:43;;;;;;;8.65;6.57;;;;;;;23.40;60.30;101046.13;5328780;28;20019;-68
2023/06/26 00:31:15;;;;;;;9.38;6.72;;;;;;;23.48;60.35;101048.31;5328820;28;20023;-68
2023/06/26 00:33:46;;;;;;;9.93;7.20;;;;;;;23.42;61.45;101046.88;5328725;28;20031;-68
2023/06/26 00:36:17;;;;;;;10.40;6.67;;;;;;;23.44;60.59;101041.47;5327478;28;20032;-68
2023/06/26 00:38:49;;;;;;;7.20;6.50;;;;;;;23.37;60.68;101033.03;5327371;28;20036;-68
2023/06/26 00:41:21;;;;;;;8.48;7.25;;;;;;;23.31;60.85;101038.72;5328527;28;20077;-68
2023/06/26 00:43:52;;;;;;;8.50;7.25;;;;;;;23.17;61.97;101031.63;5328365;28;20455;-68
2023/06/26 00:46:24;;;;;;;7.70;6.90;;;;;;;22.95;62.07;101040.88;5328474;28;20036;-68
2023/06/26 00:48:58;;;;;;;7.75;6.90;;;;;;;22.84;62.78;101045.97;5327818;28;20093;-68
2023/06/26 00:51:31;;;;;;;13.15;7.07;;;;;;;22.87;63.09;101055.59;5328147;28;20028;-68
2023/06/26 00:54:02;;;;;;;10.45;7.20;;;;;;;22.66;63.68;101057.72;5328190;28;20567;-67
2023/06/26 00:56:34;;;;;;;10.43;7.37;;;;;;;22.65;63.80;101051.53;5328267;28;20217;-68
2023/06/26 00:59:05;;;;;;;8.00;7.20;;;;;;;22.47;64.57;101047.31;5328405;28;20092;-68
2023/06/26 01:01:37;;;;;;;8.80;7.90;;;;;;;22.45;63.80;101055.38;5326862;28;20035;-69
2023/06/26 01:04:17;;;;;;;7.90;6.97;;;;;;;22.45;64.27;101054.53;5326092;28;20028;-68
2023/06/26 01:06:49;;;;;;;8.60;7.70;;;;;;;22.42;64.38;101060.88;5328171;28;20505;-68
2023/06/26 01:09:23;;;;;;;9.23;7.60;;;;;;;22.43;64.10;101065.25;5327938;28;20027;-67
2023/06/26 01:11:54;;;;;;;8.90;7.15;;;;;;;22.29;64.16;101068.69;5326772;28;20440;-68
2023/06/26 01:14:26;;;;;;;12.25;6.90;;;;;;;22.24;64.31;101065.41;5327977;27;20031;-67
2023/06/26 01:17:00;;;;;;;7.77;6.97;;;;;;;22.25;64.59;101060.94;5327644;27;20116;-67
2023/06/26 01:19:33;;;;;;;7.47;6.50;;;;;;;22.18;64.55;101068.41;5327835;28;20216;-67
2023/06/26 01:22:19;;;;;;;9.90;7.40;;;;;;;22.14;64.51;101067.75;5327913;28;20051;-68
2023/06/26 01:25:12;;;;;;;7.85;7.00;;;;;;;22.14;63.91;101070.41;5327812;28;20043;-68
2023/06/26 01:27:48;;;;;;;8.93;7.10;;;;;;;21.99;65.12;101076.56;5327844;28;20031;-68
2023/06/26 01:30:21;;;;;;;9.88;6.47;;;;;;;21.98;64.65;101066.91;5327704;28;20028;-68
2023/06/26 01:32:52;;;;;;;8.52;7.00;;;;;;;21.89;64.89;101076.22;5326236;28;20592;-68
2023/06/26 01:35:25;;;;;;;8.07;7.17;;;;;;;21.83;65.32;101079.22;5326197;28;20046;-68
2023/06/26 01:38:15;;;;;;;8.80;6.70;;;;;;;21.78;65.53;101074.19;5327361;28;20039;-68
2023/06/26 01:40:47;;;;;;;13.40;6.97;;;;;;;21.79;65.90;101073.22;5326400;28;20032;-68
2023/06/26 01:43:22;;;;;;;7.88;6.18;;;;;;;21.67;65.95;101081.88;5327274;28;20501;-68
2023/06/26 01:46:00;;;;;;;8.45;6.53;;;;;;;21.53;66.49;101085.28;5327163;28;20027;-70
2023/06/26 01:48:40;;;;;;;9.32;6.75;;;;;;;21.57;66.12;101092.09;5326997;28;20035;-68
2023/06/26 01:51:14;;;;;;;8.50;6.28;;;;;;;21.49;65.75;101100.50;5327678;28;20035;-68
2023/06/26 01:53:53;;;;;;;7.90;5.95;;;;;;;21.49;65.29;101099.63;5327128;28;20080;-67
2023/06/26 01:56:28;;;;;;;7.30;5.57;;;;;;;21.42;65.31;101101.72;5326984;28;20023;-69
2023/06/26 01:59:00;;;;;;;11.10;6.47;;;;;;;21.35;65.77;101110.97;5326926;28;20034;-69
2023/06/26 02:01:33;;;;;;;8.55;5.30;;;;;;;21.31;65.96;101109.38;5327049;28;20024;-70
2023/06/26 02:04:04;;;;;;;8.82;6.25;;;;;;;21.20;66.06;101117.91;5327283;28;20470;-68
2023/06/26 02:06:36;;;;;;;6.60;5.70;;;;;;;21.16;66.18;101112.88;5326871;28;20034;-68
2023/06/26 02:09:07;;;;;;;5.73;4.80;;;;;;;21.09;67.25;101112.28;5325450;28;20028;-68
2023/06/26 02:11:39;;;;;;;11.43;5.50;;;;;;;21.10;66.90;101111.38;5326812;28;20402;-68
2023/06/26 02:14:10;;;;;;;9.67;5.97;;;;;;;20.99;67.20;101111.06;5326853;28;20035;-69
2023/06/26 02:16:42;;;;;;;7.93;5.43;;;;;;;20.95;66.64;101108.56;5326334;28;20032;-68
2023/06/26 02:19:21;;;;;;;7.17;5.37;;;;;;;20.88;67.12;101108.97;5326355;28;20086;-68
2023/06/26 02:21:52;;;;;;;9.05;5.47;;;;;;;20.76;68.08;101113.09;5326707;28;20031;-68
2023/06/26 02:24:23;;;;;;;8.70;5.30;;;;;;;20.75;68.08;101106.06;5326504;27;20032;-69
2023/06/26 02:26:56;;;;;;;8.97;5.47;;;;;;;20.61;69.02;101101.47;5326372;28;20031;-69
2023/06/26 02:29:28;;;;;;;7.53;5.95;;;;;;;20.64;69.17;101111.06;5326331;28;20501;-67
2023/06/26 02:31:59;;;;;;;9.52;5.97;;;;;;;20.54;68.50;101107.97;5326183;28;20027;-67
2023/06/26 02:34:30;;;;;;;8.63;5.60;;;;;;;20.45;68.57;101116.34;5326683;28;20047;-68
2023/06/26 02:37:02;;;;;;;10.23;5.23;;;;;;;20.43;68.92;101107.66;5326379;28;20031;-69
2023/06/26 02:39:34;;;;;;;9.30;5.13;;;;;;;20.30;68.96;101116.19;5326373;28;20379;-68
2023/06/26 02:42:05;;;;;;;;;;;;;;;20.40;67.28;101125.41;5326386;28;20041;-69
2023/06/26 02:44:37;;;;;;;11.77;6.17;;;;;;;20.25;68.48;101117.34;5326112;28;20349;-68
2023/06/26 02:47:08;;;;;;;9.30;5.63;;;;;;;20.22;68.42;101124.50;5325533;28;20110;-69
2023/06/26 02:49:40;;;;;;;8.43;5.03;;;;;;;20.15;68.30;101116.94;5326033;28;20492;-68
2023/06/26 02:52:11;;;;;;;9.73;5.37;;;;;;;20.10;68.76;101127.72;5326013;28;20032;-68
2023/06/26 02:54:42;;;;;;;9.93;5.63;;;;;;;20.07;68.76;101132.31;5325867;28;20028;-68
2023/06/26 02:57:14;;;;;;;8.73;4.70;;;;;;;20.10;68.76;101137.47;5325799;28;20390;-68
2023/06/26 02:59:45;;;;;;;9.13;5.40;;;;;;;20.03;69.74;101136.91;5325808;28;20035;-68
2023/06/26 03:02:17;;;;;;;9.60;5.23;;;;;;;19.95;70.09;101149.63;5325737;28;20314;-69
2023/06/26 03:04:49;;;;;;;8.90;5.23;;;;;;;19.94;70.32;101145.25;5326029;28;20020;-68
2023/06/26 03:07:21;;;;;;;8.93;5.80;;;;;;;19.89;70.81;101158.69;5325486;28;20110;-68
2023/06/26 03:09:52;;;;;;;11.83;5.60;;;;;;;19.83;71.52;101157.16;5324490;28;20127;-68
2023/06/26 03:12:25;;;;;;;8.43;5.10;;;;;;;19.86;71.72;101156.19;5324272;28;20129;-68
2023/06/26 03:14:56;;;;;;;10.02;5.50;;;;;;;19.70;72.81;101147.22;5325688;28;20527;-68
2023/06/26 03:17:27;;;;;;;7.73;4.50;;;;;;;19.65;73.27;101161.47;5323826;28;20077;-68
2023/06/26 03:19:59;;;;;;;13.17;4.60;;;;;;;19.61;74.40;101156.41;5324160;28;20062;-69
2023/06/26 03:22:30;;;;;;;13.27;6.07;;;;;;;19.58;74.75;101160.06;5325420;28;20028;-67
2023/06/26 03:25:02;;;;;;;9.77;5.17;;;;;;;19.53;75.23;101167.34;5325389;28;20569;-68
2023/06/26 03:27:34;;;;;;;;;;;;;;;19.61;74.21;101152.00;5325504;28;20028;-68
2023/06/26 03:30:06;;;;;;;10.13;5.07;;;;;;;19.50;76.01;101154.25;5325160;28;20252;-68
2023/06/26 03:32:37;;;;;;;13.02;5.65;;;;;;;19.44;76.82;101154.53;5324384;28;20529;-67
2023/06/26 03:35:09;;;;;;;10.93;4.80;;;;;;;19.45;76.64;101161.53;5325202;28;20122;-68
2023/06/26 03:37:40;;;;;;;11.32;5.75;;;;;;;19.45;77.24;101154.44;5325297;28;20032;-67
2023/06/26 03:40:12;;;;;;;9.77;5.03;;;;;;;19.42;77.45;101157.22;5325382;28;20475;-68
2023/06/26 03:42:43;;;;;;;9.33;5.37;;;;;;;19.43;77.27;101158.06;5325089;28;20024;-68
2023/06/26 03:45:14;;;;;;;13.33;5.57;;;;;;;19.42;78.02;101156.38;5325084;28;20050;-68
2023/06/26 03:47:49;;;;;;;10.93;5.63;;;;;;;19.36;78.20;101152.19;5324739;28;20344;-67
2023/06/26 03:50:21;;;;;;;12.00;6.18;;;;;;;19.31;79.28;101155.03;5323907;28;20032;-67
2023/06/26 03:52:54;;;;;;;10.43;5.00;;;;;;;19.28;79.59;101163.09;5325460;28;20024;-68
2023/06/26 03:55:25;;;;;;;13.27;5.47;;;;;;;19.25;80.38;101165.88;5324968;28;20486;-67
2023/06/26 03:57:56;;;;;;;20.97;5.90;;;;;;;19.29;80.58;101175.41;5325087;28;20039;-67
2023/06/26 04:00:28;;;;;;;12.13;6.37;;;;;;;19.27;81.32;101168.44;5325010;28;20066;-67
2023/06/26 04:02:59;;;;;;;11.07;5.20;;;;;;;19.27;81.24;101168.44;5325099;28;20421;-67
2023/06/26 04:05:31;;;;;;;15.97;6.67;;;;;;;19.25;81.73;101172.94;5324963;28;20047;-67
2023/06/26 04:08:02;;;;;;;16.03;6.63;;;;;;;19.21;82.02;101188.09;5325114;28;20067;-66
2023/06/26 04:10:35;;;;;;;14.60;6.83;;;;;;;19.22;83.02;101192.44;5324936;28;20092;-66
2023/06/26 04:13:07;;;;;;;13.30;6.75;;;;;;;19.05;84.06;101195.81;5323749;28;20085;-66
2023/06/26 04:15:38;;;;;;;14.13;6.43;;;;;;;19.02;84.63;101197.72;5324887;28;20036;-66
2023/06/26 04:18:10;;;;;;;14.43;6.63;;;;;;;19.16;84.06;101199.75;5324417;28;20390;-67
2023/06/26 04:21:01;;;;;;;14.90;6.90;;;;;;;19.10;84.56;101209.69;5324748;28;20047;-66
2023/06/26 04:23:33;;;;;;;14.55;6.95;;;;;;;19.15;84.92;101204.19;5324822;28;20027;-67
2023/06/26 04:26:05;;;;;;;13.45;6.20;;;;;;;19.14;85.53;101207.75;5324734;28;20031;-68
2023/06/26 04:28:37;;;;;;;14.73;6.40;;;;;;;19.22;85.60;101216.22;5323488;28;20123;-68
2023/06/26 04:31:09;;;;;;;12.05;7.03;;;;;;;19.25;85.93;101212.59;5323591;28;20077;-67
2023/06/26 04:33:40;;;;;;;12.13;5.93;;;;;;;19.24;85.93;101203.81;5324828;28;20458;-67
2023/06/26 04:36:12;;;;;;;14.07;6.47;;;;;;;19.21;86.96;101213.66;5324906;28;20127;-67
2023/06/26 04:38:43;;;;;;;24.47;6.93;;;;;;;19.28;86.66;101208.03;5326110;28;20070;-67
2023/06/26 04:41:15;;;;;;;14.37;6.77;;;;;;;19.39;86.50;101230.53;5328084;28;20177;-67
2023/06/26 04:43:46;;;;;;;19.23;6.97;;;;;;;19.19;87.86;101219.03;5328673;28;20042;-67
2023/06/26 04:46:17;;;;;;;17.30;7.97;;;;;;;19.09;88.83;101222.94;5328589;28;20031;-67
2023/06/26 04:48:49;;;;;;;22.80;7.17;;;;;;;19.07;89.64;101230.94;5327869;28;20501;-68
2023/06/26 04:51:20;;;;;;;21.97;7.40;;;;;;;19.09;89.58;101238.81;5328440;28;20092;-68
2023/06/26 04:53:52;;;;;;;14.43;7.47;;;;;;;19.03;90.30;101236.41;5328216;28;20031;-68
2023/06/26 04:56:23;;;;;;;17.83;7.03;;;;;;;19.05;90.25;101235.44;5328864;27;20115;-68
2023/06/26 04:58:55;;;;;;;15.43;6.43;;;;;;;19.18;89.72;101245.50;5327169;28;20042;-68
2023/06/26 05:01:29;;;;;;;20.77;6.90;;;;;;;19.22;88.95;101234.72;5328421;28;20054;-68
2023/06/26 05:04:00;;;;;;;17.67;7.43;;;;;;;19.28;89.15;101238.91;5327954;27;20342;-69
2023/06/26 05:06:32;;;;;;;17.80;6.60;;;;;;;19.35;88.13;101240.34;5328170;28;20032;-67
2023/06/26 05:09:04;;;;;;;13.43;5.72;;;;;;;19.52;87.26;101249.38;5328020;28;20059;-66
2023/06/26 05:11:35;;;;;;;19.40;6.53;;;;;;;19.56;87.19;101253.59;5328239;28;20027;-67
2023/06/26 05:14:07;;;;;;;13.07;6.68;;;;;;;19.43;86.90;101255.91;5328115;28;20100;-68
2023/06/26 05:16:38;;;;;;;17.97;6.63;;;;;;;19.32;87.69;101256.38;5328062;28;20534;-66
2023/06/26 05:19:10;;;;;;;21.15;8.05;;;;;;;19.18;88.05;101264.84;5327352;28;20051;-69
2023/06/26 05:21:41;;;;;;;23.80;7.50;;;;;;;19.15;88.48;101264.13;5327872;28;20108;-66
2023/06/26 05:24:15;;;;;;;15.77;7.13;;;;;;;19.16;88.78;101260.53;5327986;28;20265;-66
2023/06/26 05:26:47;;;;;;;19.98;8.20;;;;;;;19.16;88.24;101268.47;5327610;28;20059;-66
2023/06/26 05:29:18;;;;;;;15.67;6.73;;;;;;;19.15;88.22;101270.25;5327477;28;20124;-67
2023/06/26 05:31:53;;;;;;;21.33;6.67;;;;;;;19.34;87.19;101274.81;5327506;28;20285;-66
2023/06/26 05:34:28;;;;;;;20.73;6.15;;;;;;;19.55;86.50;101273.03;5327577;28;20024;-67
2023/06/26 05:37:00;;;;;;;22.10;6.82;;;;;;;19.43;84.86;101277.03;5326220;28;20133;-66
2023/06/26 05:39:31;;;;;;;19.33;6.13;;;;;;;19.34;84.94;101294.16;5327547;28;20371;-67
2023/06/26 05:42:03;;;;;;;19.67;6.40;;;;;;;19.26;85.39;101289.19;5327515;28;20035;-67
2023/06/26 05:44:34;;;;;;;12.63;5.35;;;;;;;19.25;84.76;101282.16;5327288;28;20024;-67
2023/06/26 05:47:06;;;;;;;13.27;5.67;;;;;;;19.16;84.67;101293.13;5326973;28;20042;-67
2023/06/26 05:49:37;;;;;;;16.97;6.17;;;;;;;19.11;85.11;101290.69;5325560;28;20034;-68
2023/06/26 05:52:10;;;;;;;18.87;6.17;;;;;;;19.18;85.37;101296.56;5327006;28;20113;-67
2023/06/26 05:54:41;;;;;;;;;;;;;;;19.28;84.36;101295.25;5309563;28;20119;-67
2023/06/26 05:57:14;;;;;;;13.57;5.38;;;;;;;19.30;84.55;101298.72;5327157;28;19995;-67
2023/06/26 05:59:46;;;;;;;16.25;5.95;;;;;;;19.42;83.70;101304.44;5327228;28;20050;-67
2023/06/26 06:02:17;;;;;;;14.05;6.25;;;;;;;19.44;82.74;101303.41;5326914;28;20042;-68
2023/06/26 06:04:49;;;;;;;13.67;5.37;;;;;;;19.45;82.28;101310.44;5327082;28;20115;-68
2023/06/26 06:07:21;;;;;;;14.67;5.50;;;;;;;19.52;80.94;101313.69;5327149;28;20470;-67
2023/06/26 06:09:53;;;;;;;;;;;;;;;19.62;80.55;101320.28;5327362;28;20027;-67
2023/06/26 06:12:24;;;;;;;15.10;6.00;;;;;;;19.55;79.90;101324.13;5325698;28;19915;-66
2023/06/26 06:14:56;;;;;;;17.83;4.83;;;;;;;19.49;80.32;101322.59;5326696;28;20027;-66
2023/06/26 06:17:28;;;;;;;15.90;4.57;;;;;;;19.49;79.62;101325.22;5326311;28;20439;-67
2023/06/26 06:19:59;;;;;;;12.88;5.45;;;;;;;19.44;79.98;101331.66;5326047;27;20131;-68
2023/06/26 06:22:31;;;;;;;12.20;4.50;;;;;;;19.57;80.30;101343.44;5326705;28;20123;-68
2023/06/26 06:25:02;;;;;;;15.63;4.30;;;;;;;19.67;78.18;101342.13;5326447;28;20115;-67
2023/06/26 06:27:34;;;;;;;9.13;4.00;;;;;;;19.70;77.49;101346.41;5325048;28;20032;-67
2023/06/26 06:30:06;;;;;;;14.10;5.43;;;;;;;19.69;76.60;101342.06;5325240;28;20282;-67
2023/06/26 06:32:37;;;;;;;13.38;4.78;;;;;;;19.74;75.91;101347.16;5326374;28;20038;-68
2023/06/26 06:35:11;;;;;;;11.57;5.27;;;;;;;19.71;76.05;101344.66;5325124;28;20561;-67
2023/06/26 06:37:43;;;;;;;10.43;5.15;;;;;;;19.75;75.50;101344.44;5326204;28;20028;-67
2023/06/26 06:40:15;;;;;;;11.73;4.33;;;;;;;19.84;75.12;101344.09;5325977;28;20085;-67
2023/06/26 06:42:46;;;;;;;13.00;5.20;;;;;;;20.00;74.86;101354.03;5326363;28;20019;-67
2023/06/26 06:45:17;;;;;;;11.43;4.03;;;;;;;20.19;73.97;101356.72;5326022;28;20020;-67
2023/06/26 06:47:49;;;;;;;12.83;5.20;;;;;;;20.19;73.73;101369.97;5324517;28;20031;-67
2023/06/26 06:50:21;;;;;;;9.88;4.15;;;;;;;20.12;73.58;101364.06;5325830;28;20035;-67
2023/06/26 06:52:52;;;;;;;13.17;4.13;;;;;;;20.17;73.54;101374.44;5326100;28;20092;-67
2023/06/26 06:55:25;;;;;;;9.77;3.70;;;;;;;20.16;74.00;101372.75;5326177;28;20032;-68
2023/06/26 06:57:56;;;;;;;12.52;4.10;;;;;;;20.19;73.85;101369.97;5325720;28;20027;-68
2023/06/26 07:00:27;;;;;;;11.13;4.10;;;;;;;20.26;73.22;101395.22;5325661;28;20493;-69
2023/06/26 07:03:00;;;;;;;7.73;3.30;;;;;;;20.40;72.93;101395.47;5325193;28;20023;-69
2023/06/26 07:05:31;;;;;;;;;;;;;;;20.56;72.25;101416.00;5326373;28;20455;-68
2023/06/26 07:08:03;;;;;;;11.00;4.07;;;;;;;20.48;72.22;101402.22;5307479;28;19949;-68
2023/06/26 07:10:34;;;;;;;8.77;4.03;;;;;;;20.73;72.07;101407.31;5325516;28;20028;-68
2023/06/26 07:13:05;;;;;;;12.97;3.67;;;;;;;20.79;71.66;101406.19;5325597;28;20387;-68
2023/06/26 07:15:37;;;;;;;10.13;3.53;;;;;;;21.12;70.41;101401.09;5325365;28;20036;-67
2023/06/26 07:18:08;;;;;;;10.53;3.87;;;;;;;21.31;68.98;101399.25;5325119;28;20395;-67
2023/06/26 07:20:40;;;;;;;12.50;4.10;;;;;;;21.13;68.65;101413.41;5325750;28;20418;-68
2023/06/26 07:23:13;;;;;;;10.32;3.95;;;;;;;20.74;69.96;101423.13;5325336;28;20415;-68
2023/06/26 07:25:44;;;;;;;8.47;3.63;;;;;;;20.74;70.64;101425.78;5325498;28;20059;-67
2023/06/26 07:28:16;;;;;;;8.77;3.20;;;;;;;20.94;69.55;101426.66;5324034;28;20039;-68
2023/06/26 07:30:47;;;;;;;10.63;3.83;;;;;;;20.87;69.80;101427.88;5325401;28;20024;-67
2023/06/26 07:33:20;;;;;;;6.50;2.87;;;;;;;20.65;70.14;101430.63;5325354;28;20039;-67
2023/06/26 07:35:52;;;;;;;11.52;3.50;;;;;;;20.67;71.61;101434.06;5325356;28;20032;-67
2023/06/26 07:38:23;;;;;;;10.23;3.17;;;;;;;20.86;71.07;101448.22;5325093;28;20045;-67
2023/06/26 07:40:54;;;;;;;9.07;3.93;;;;;;;21.07;69.42;101441.06;5325366;28;20490;-68
2023/06/26 07:43:26;;;;;;;10.13;3.43;;;;;;;21.11;69.91;101455.91;5325357;28;20498;-67
2023/06/26 07:45:58;;;;;;;7.23;3.13;;;;;;;20.93;69.12;101457.59;5325156;28;20030;-68
2023/06/26 07:48:29;;;;;;;;;;;;;;;21.22;68.33;101457.19;5325246;28;20391;-68
2023/06/26 07:51:01;;;;;;;7.50;3.47;;;;;;;21.15;67.15;101456.59;5323785;28;19915;-68
2023/06/26 07:53:32;;;;;;;10.10;3.03;;;;;;;21.00;67.61;101460.84;5325333;28;20069;-67
2023/06/26 07:56:04;;;;;;;12.07;3.17;;;;;;;21.13;66.49;101461.97;5306977;28;20039;-67
2023/06/26 07:58:36;;;;;;;6.28;2.72;;;;;;;21.21;65.96;101471.38;5325102;28;20110;-67
2023/06/26 08:01:07;;;;;;;13.37;2.90;;;;;;;21.25;65.82;101467.66;5325126;28;20451;-68
2023/06/26 08:03:39;;;;;;;5.07;3.03;;;;;;;21.25;65.37;101472.94;5324958;28;20348;-66
2023/06/26 08:06:11;;;;;;;;;;;;;;;21.76;62.74;101470.56;5325445;28;20035;-67
2023/06/26 08:08:42;;;;;;;6.97;2.40;;;;;;;21.53;60.53;101472.53;5325199;28;19914;-67
2023/06/26 08:11:13;;;;;;;6.50;2.10;;;;;;;21.72;60.08;101474.28;5324921;28;20059;-67
2023/06/26 08:13:45;;;;;;;6.83;2.07;;;;;;;21.59;55.44;101488.19;5328107;28;20024;-67
2023/06/26 08:16:16;;;;;;;4.13;2.33;;;;;;;21.01;56.00;101499.69;5328977;28;20427;-68
2023/06/26 08:18:47;;;;;;;6.97;2.60;;;;;;;20.74;57.08;101483.22;5328983;28;20027;-66
2023/06/26 08:21:19;;;;;;;5.53;1.90;;;;;;;21.07;57.68;101487.91;5329136;28;20082;-67
2023/06/26 08:23:50;;;;;;;5.23;2.50;;;;;;;20.97;56.46;101498.06;5329142;28;20039;-67
2023/06/26 08:26:22;;;;;;;6.57;2.10;;;;;;;21.00;57.38;101489.13;5328650;28;20030;-68
2023/06/26 08:28:53;;;;;;;6.93;2.10;;;;;;;21.07;57.03;101496.72;5328939;28;20027;-68
2023/06/26 08:31:25;;;;;;;5.67;1.73;;;;;;;21.10;55.47;101506.34;5328964;28;20261;-68
2023/06/26 08:33:56;;;;;;;8.63;2.73;;;;;;;20.97;55.52;101491.94;5327453;28;20123;-68
2023/06/26 08:36:27;;;;;;;4.90;1.53;;;;;;;21.11;57.28;101497.47;5328705;28;20039;-68
2023/06/26 08:38:59;;;;;;;4.53;1.83;;;;;;;21.33;57.03;101484.06;5327167;28;20500;-68
2023/06/26 08:41:31;;;;;;;5.65;2.00;;;;;;;21.62;56.55;101487.16;5328750;28;20532;-67
2023/06/26 08:44:04;;;;;;;6.90;2.00;;;;;;;21.89;54.76;101486.75;5328768;28;20023;-67
2023/06/26 08:46:36;;;;;;;5.15;2.92;;;;;;;22.03;54.61;101494.91;5328505;27;20020;-68
2023/06/26 08:49:34;;;;;;;6.03;2.28;;;;;;;22.25;53.79;101499.13;5328002;28;20036;-68
2023/06/26 08:52:15;;;;;;;6.30;2.10;;;;;;;21.87;53.97;101501.91;5324477;28;20118;-66
2023/06/26 08:54:54;;;;;;;7.70;2.38;;;;;;;21.76;54.62;101505.06;5328351;28;20112;-67
2023/06/26 08:57:26;;;;;;;5.43;2.05;;;;;;;21.78;55.85;101511.16;5328358;28;20442;-67
2023/06/26 08:59:58;;;;;;;8.55;2.22;;;;;;;21.72;56.38;101511.44;5328148;28;20088;-67
2023/06/26 09:02:30;;;;;;;5.07;1.90;;;;;;;21.96;54.88;101514.69;5328401;28;20039;-68
2023/06/26 09:05:02;;;;;;;11.43;2.78;;;;;;;22.03;53.57;101514.34;5328099;28;20034;-67
2023/06/26 09:07:34;;;;;;;6.40;1.88;;;;;;;22.11;51.62;101523.72;5328317;28;20057;-68
2023/06/26 09:10:06;;;;;;;4.93;1.57;;;;;;;22.15;49.76;101527.94;5327847;28;20066;-68
2023/06/26 09:12:38;;;;;;;5.90;2.03;;;;;;;21.91;49.63;101527.34;5327938;28;20040;-68
2023/06/26 09:15:09;;;;;;;5.00;1.92;;;;;;;21.99;50.32;101526.06;5327946;28;20466;-67
2023/06/26 09:17:42;;;;;;;5.73;1.83;;;;;;;22.14;49.61;101515.63;5327969;28;20151;-68
2023/06/26 09:20:14;;;;;;;6.43;2.05;;;;;;;22.24;48.50;101529.28;5327902;28;20462;-67
2023/06/26 09:22:48;;;;;;;9.20;2.80;;;;;;;22.50;49.60;101533.31;5285328;28;20468;-67
2023/06/26 09:25:22;;;;;;;6.20;2.00;;;;;;;22.28;50.43;101528.19;5284678;28;20452;-67
2023/06/26 09:27:54;;;;;;;5.25;1.92;;;;;;;22.48;51.00;101535.19;5285271;28;20024;-67
2023/06/26 09:30:25;;;;;;;7.28;2.63;;;;;;;22.51;49.23;101525.25;5285550;28;20024;-68
2023/06/26 09:32:57;;;;;;;6.63;1.80;;;;;;;22.57;48.82;101532.91;5285195;28;20491;-67
2023/06/26 09:35:29;;;;;;;6.45;1.75;;;;;;;22.67;47.38;101537.72;5283833;28;20286;-67
2023/06/26 09:38:00;;;;;;;4.22;1.98;;;;;;;22.09;47.80;101541.50;5285266;28;20028;-69
2023/06/26 09:40:31;;;;;;;3.57;1.70;;;;;;;22.33;47.09;101553.63;5285223;28;20132;-69
2023/06/26 09:43:04;;;;;;;2.93;1.83;;;;;;;22.68;47.45;101552.75;5285044;28;20035;-68
2023/06/26 09:45:39;;;;;;;5.32;1.65;;;;;;;22.55;46.18;101557.84;5285174;28;20029;-68
2023/06/26 09:48:13;;;;;;;4.88;1.83;;;;;;;22.23;45.55;101562.94;5284520;28;20468;-67
2023/06/26 09:50:45;;;;;;;5.68;1.92;;;;;;;22.43;45.46;101575.25;5284802;28;20099;-67
2023/06/26 09:53:18;;;;;;;4.35;1.80;;;;;;;22.71;44.75;101574.72;5284848;28;20037;-68
2023/06/26 09:55:49;;;;;;;5.50;2.00;;;;;;;22.52;43.95;101573.94;5284776;28;20098;-67
2023/06/26 09:58:23;;;;;;;7.67;1.90;;;;;;;22.67;45.49;101573.16;5284748;28;20028;-67
2023/06/26 10:00:54;;;;;;;5.32;1.73;;;;;;;22.81;45.66;101566.25;5284551;28;20040;-68
2023/06/26 10:03:26;;;;;;;8.10;2.07;;;;;;;22.76;44.81;101559.41;5284719;28;20041;-68
2023/06/26 10:06:00;;;;;;;7.47;2.20;;;;;;;23.10;44.60;101562.09;5284566;28;20086;-68
2023/06/26 10:08:34;;;;;;;2.95;1.80;;;;;;;23.17;44.76;101565.28;5284322;28;20094;-67
2023/06/26 10:11:12;;;;;;;4.03;1.75;;;;;;;23.08;40.79;101588.78;5284635;28;20047;-67
2023/06/26 10:13:47;;;;;;;5.57;1.77;;;;;;;23.64;39.01;101605.28;5284721;28;20025;-68
2023/06/26 10:16:23;;;;;;;4.82;1.85;;;;;;;24.71;37.73;101584.19;5284442;28;20430;-67
2023/06/26 10:19:01;;;;;;;3.75;2.13;;;;;;;25.56;35.71;101589.66;5282639;28;20464;-68
2023/06/26 10:21:34;;;;;;;4.28;1.73;;;;;;;25.42;35.09;101573.66;5306409;28;20047;-67
2023/06/26 10:24:08;;;;;;;2.90;1.80;;;;;;;25.70;34.47;101599.47;5326574;28;20031;-66
2023/06/26 10:26:43;;;;;;;5.40;2.25;;;;;;;25.05;34.70;101592.81;5326370;28;20023;-66
2023/06/26 10:29:17;;;;;;;4.10;1.42;;;;;;;25.18;34.00;101597.34;5326525;28;20027;-69
2023/06/26 10:31:52;;;;;;;3.35;1.77;;;;;;;25.55;34.30;101585.28;5325374;28;20155;-68
2023/06/26 10:34:25;;;;;;;5.63;1.83;;;;;;;25.50;36.11;101581.19;5326432;28;20127;-68
2023/06/26 10:37:06;;;;;;;4.80;1.65;;;;;;;26.69;33.75;101595.72;5325369;28;20046;-68
2023/06/26 10:39:54;;;;;;;2.92;1.52;;;;;;;26.01;33.91;101600.19;5326384;28;20071;-69
2023/06/26 10:42:37;;;;;;;5.38;1.73;;;;;;;26.41;32.71;101592.22;5325313;28;20059;-67
2023/06/26 10:45:21;;;;;;;4.45;1.40;;;;;;;26.03;33.79;101611.63;5326063;28;20031;-69
2023/06/26 10:47:53;;;;;;;4.13;1.55;;;;;;;26.56;31.59;101615.25;5325836;28;20106;-67
2023/06/26 10:50:30;;;;;;;3.33;1.38;;;;;;;26.39;30.97;101618.19;5325903;28;20382;-68
2023/06/26 10:53:34;;;;;;;3.85;1.40;;;;;;;27.28;30.84;101616.63;5325967;28;20066;-68
2023/06/26 10:56:06;;;;;;;2.97;1.75;;;;;;;25.78;31.01;101617.69;5325850;28;20038;-69
2023/06/26 10:58:39;;;;;;;;;;;;;;;27.72;29.58;101609.91;5325019;28;20110;-68
2023/06/26 11:01:11;;;;;;;5.45;1.58;;;;;;;26.87;30.16;101593.59;5325797;28;19951;-69
2023/06/26 11:03:44;;;;;;;;;;;;;;;28.24;29.65;101615.13;5326151;28;20063;-69
2023/06/26 11:06:21;;;;;;;4.68;1.60;;;;;;;26.89;30.34;101619.28;5325859;28;19915;-68
2023/06/26 11:08:58;;;;;;;6.03;1.55;;;;;;;27.40;30.02;101637.22;5324498;28;20470;-69
2023/06/26 11:11:54;;;;;;;6.32;1.63;;;;;;;28.82;29.08;101624.16;5325654;28;20039;-67
2023/06/26 11:14:27;;;;;;;4.68;1.98;;;;;;;28.41;28.43;101616.56;5325783;28;20076;-68
2023/06/26 11:17:01;;;;;;;5.45;2.00;;;;;;;27.31;29.25;101626.25;5325665;28;20060;-68
2023/06/26 11:19:32;;;;;;;6.72;2.20;;;;;;;27.48;29.05;101633.97;5324911;27;20359;-67
2023/06/26 11:22:05;;;;;;;;;;;;;;;28.67;27.90;101634.22;5325986;28;20059;-69
2023/06/26 11:24:36;;;;;;;3.83;1.53;;;;;;;27.49;28.53;101654.44;5325744;28;19912;-67
2023/06/26 11:27:08;;;;;;;;;;;;;;;28.30;27.71;101650.38;5325871;28;20112;-68
2023/06/26 11:29:47;;;;;;;3.50;1.80;;;;;;;27.65;29.28;101630.94;5325261;28;20392;-68
2023/06/26 11:32:19;;;;;;;5.72;1.95;;;;;;;28.44;27.94;101638.63;5325652;28;20076;-68
2023/06/26 11:34:50;;;;;;;;;;;;;;;29.00;28.01;101635.28;5325876;28;20031;-68
2023/06/26 11:37:22;;;;;;;6.45;1.90;;;;;;;27.57;29.30;101636.00;5325336;28;19911;-67
2023/06/26 11:39:53;;;;;;;;;;;;;;;28.63;28.82;101653.38;5325760;28;20055;-68
2023/06/26 11:42:25;;;;;;;9.77;2.40;;;;;;;27.68;29.77;101650.41;5325482;28;19907;-68
2023/06/26 11:44:56;;;;;;;6.50;2.22;;;;;;;26.52;31.98;101655.66;5325340;28;20393;-68
2023/06/26 11:47:28;;;;;;;;;;;;;;;27.04;30.94;101664.69;5326389;28;20024;-68
2023/06/26 11:50:04;;;;;;;4.85;1.70;;;;;;;26.64;30.26;101667.34;5329590;28;19970;-68